createdAt,value
2022-09-27T00:02:19.860Z,0.90
2022-09-27T00:05:21.292Z,1.00
2022-09-27T00:08:22.710Z,1.00
2022-09-27T00:11:39.333Z,1.13
2022-09-27T00:14:40.925Z,1.13
2022-09-27T00:17:42.581Z,1.10
2022-09-27T00:20:43.955Z,1.20
2022-09-27T00:23:45.592Z,1.00
2022-09-27T00:26:48.240Z,1.10
2022-09-27T00:29:49.632Z,0.93
2022-09-27T00:32:52.887Z,0.90
2022-09-27T00:35:54.448Z,0.97
2022-09-27T00:38:56.650Z,0.70
2022-09-27T00:41:58.030Z,1.00
2022-09-27T00:45:13.767Z,1.03
2022-09-27T00:48:21.163Z,0.80
2022-09-27T00:51:22.781Z,0.80
2022-09-27T00:54:28.273Z,0.80
2022-09-27T00:57:29.862Z,1.07
2022-09-27T01:00:31.704Z,1.03
2022-09-27T01:04:05.874Z,0.80
2022-09-27T01:07:07.495Z,0.80
2022-09-27T01:10:09.563Z,0.90
2022-09-27T01:13:26.199Z,0.80
2022-09-27T01:16:40.852Z,0.90
2022-09-27T01:19:50.962Z,0.90
2022-09-27T01:23:22.095Z,0.90
2022-09-27T01:26:32.455Z,0.70
2022-09-27T01:30:08.284Z,0.93
2022-09-27T01:33:35.587Z,1.00
2022-09-27T01:36:52.928Z,1.10
2022-09-27T01:39:57.290Z,1.03
2022-09-27T01:43:18.396Z,1.20
2022-09-27T01:46:32.146Z,1.07
2022-09-27T01:49:59.232Z,0.80
2022-09-27T01:53:20.245Z,1.27
2022-09-27T01:56:49.593Z,0.90
2022-09-27T02:00:07.234Z,1.10
2022-09-27T02:03:24.354Z,1.00
2022-09-27T02:07:03.833Z,1.10
2022-09-27T02:10:16.379Z,0.90
2022-09-27T02:13:37.414Z,1.13
2022-09-27T02:17:24.493Z,0.80
2022-09-27T02:20:39.017Z,0.90
2022-09-27T02:23:48.813Z,1.30
2022-09-27T02:27:02.029Z,1.20
2022-09-27T02:30:08.033Z,1.40
2022-09-27T02:33:10.566Z,1.60
2022-09-27T02:36:12.409Z,1.40
2022-09-27T02:39:14.516Z,1.50
2022-09-27T02:42:16.109Z,1.10
2022-09-27T02:45:19.849Z,1.30
2022-09-27T02:48:37.134Z,1.47
2022-09-27T02:51:47.255Z,1.20
2022-09-27T02:55:06.412Z,1.10
2022-09-27T02:58:40.272Z,1.20
2022-09-27T03:02:13.527Z,1.10
2022-09-27T03:05:35.122Z,1.20
2022-09-27T03:08:38.348Z,1.20
2022-09-27T03:11:40.522Z,1.23
2022-09-27T03:14:41.923Z,1.30
2022-09-27T03:18:03.630Z,1.23
2022-09-27T03:21:33.878Z,1.30
2022-09-27T03:24:35.363Z,1.60
2022-09-27T03:27:37.157Z,1.90
2022-09-27T03:30:38.707Z,1.40
2022-09-27T03:33:40.890Z,1.30
2022-09-27T03:36:45.388Z,1.47
2022-09-27T03:39:46.802Z,1.57
2022-09-27T03:42:50.252Z,1.60
2022-09-27T03:45:51.830Z,1.67
2022-09-27T03:48:53.255Z,1.47
2022-09-27T03:51:54.663Z,1.33
2022-09-27T03:55:01.808Z,1.77
2022-09-27T03:58:03.732Z,1.27
2022-09-27T04:01:05.325Z,1.40
2022-09-27T04:04:11.247Z,1.50
2022-09-27T04:07:13.352Z,1.50
2022-09-27T04:10:15.748Z,1.40
2022-09-27T04:13:17.694Z,1.37
2022-09-27T04:16:27.528Z,1.63
2022-09-27T04:19:49.463Z,2.00
2022-09-27T04:22:51.181Z,1.73
2022-09-27T04:25:52.822Z,1.27
2022-09-27T04:29:05.745Z,1.37
2022-09-27T04:32:13.033Z,1.30
2022-09-27T04:35:52.982Z,1.57
2022-09-27T04:38:56.329Z,1.30
2022-09-27T04:41:57.809Z,1.60
2022-09-27T04:44:59.440Z,1.53
2022-09-27T04:48:01.048Z,1.60
2022-09-27T04:51:03.683Z,1.50
2022-09-27T04:54:05.289Z,1.40
2022-09-27T04:57:12.137Z,1.50
2022-09-27T05:00:15.093Z,1.30
2022-09-27T05:03:19.441Z,1.30
2022-09-27T05:06:30.454Z,1.60
2022-09-27T05:09:39.498Z,1.70
2022-09-27T05:12:41.169Z,1.50
2022-09-27T05:15:42.782Z,1.60
2022-09-27T05:19:07.057Z,1.50
2022-09-27T05:22:40.768Z,1.50
2022-09-27T05:25:43.024Z,1.50
2022-09-27T05:28:45.960Z,1.20
2022-09-27T05:31:47.411Z,1.47
2022-09-27T05:34:49.184Z,1.20
2022-09-27T05:37:58.725Z,0.90
2022-09-27T05:41:03.932Z,1.43
2022-09-27T05:44:05.891Z,0.93
2022-09-27T05:47:08.206Z,1.20
2022-09-27T05:50:09.789Z,1.10
2022-09-27T05:53:11.590Z,1.03
2022-09-27T05:56:13.158Z,2.23
2022-09-27T05:59:34.669Z,1.33
2022-09-27T06:02:56.651Z,1.07
2022-09-27T06:06:16.874Z,1.00
2022-09-27T06:09:26.992Z,1.10
2022-09-27T06:12:28.465Z,0.93
2022-09-27T06:15:31.828Z,0.90
2022-09-27T06:18:33.948Z,1.33
2022-09-27T06:21:35.855Z,1.20
2022-09-27T06:24:37.412Z,1.17
2022-09-27T06:27:44.782Z,1.20
2022-09-27T06:30:55.890Z,1.50
2022-09-27T06:34:17.560Z,1.20
2022-09-27T06:37:19.149Z,1.13
2022-09-27T06:40:20.795Z,1.13
2022-09-27T06:43:49.407Z,1.37
2022-09-27T06:47:27.200Z,1.30
2022-09-27T06:50:49.093Z,1.30
2022-09-27T06:53:50.740Z,1.00
2022-09-27T06:56:52.229Z,0.87
2022-09-27T07:00:12.293Z,1.10
2022-09-27T07:03:43.034Z,0.97
2022-09-27T07:06:53.639Z,1.13
2022-09-27T07:09:57.770Z,1.00
2022-09-27T07:13:07.979Z,1.00
2022-09-27T07:16:15.990Z,1.00
2022-09-27T07:19:18.281Z,1.07
2022-09-27T07:22:20.730Z,0.90
2022-09-27T07:25:27.964Z,1.10
2022-09-27T07:28:30.076Z,0.70
2022-09-27T07:31:32.526Z,1.10
2022-09-27T07:34:34.088Z,1.10
2022-09-27T07:37:37.525Z,0.87
2022-09-27T07:40:40.202Z,0.90
2022-09-27T07:43:44.355Z,1.00
2022-09-27T07:46:46.088Z,0.90
2022-09-27T07:49:57.277Z,0.80
2022-09-27T07:53:24.782Z,0.90
2022-09-27T07:56:32.995Z,0.90
2022-09-27T07:59:35.010Z,0.83
2022-09-27T08:02:37.863Z,0.77
2022-09-27T08:05:39.417Z,0.77
2022-09-27T08:08:41.486Z,1.07
2022-09-27T08:11:44.751Z,0.90
2022-09-27T08:14:48.549Z,1.00
2022-09-27T08:17:50.802Z,0.80
2022-09-27T08:21:00.946Z,0.87
2022-09-27T08:24:37.850Z,0.77
2022-09-27T08:27:59.944Z,0.93
2022-09-27T08:31:09.508Z,0.90
2022-09-27T08:34:11.948Z,0.90
2022-09-27T08:37:13.389Z,1.03
2022-09-27T08:40:17.599Z,0.83
2022-09-27T08:43:44.317Z,1.00
2022-09-27T08:47:27.096Z,1.10
2022-09-27T08:50:39.006Z,0.83
2022-09-27T08:54:07.589Z,1.30
2022-09-27T08:57:12.698Z,1.20
2022-09-27T09:00:15.590Z,1.00
2022-09-27T09:03:20.981Z,1.00
2022-09-27T09:06:40.430Z,1.03
2022-09-27T09:10:03.098Z,1.17
2022-09-27T09:13:42.312Z,1.17
2022-09-27T09:16:57.084Z,1.10
2022-09-27T09:20:16.989Z,1.27
2022-09-27T09:23:53.732Z,1.17
2022-09-27T09:27:06.191Z,1.20
2022-09-27T09:30:24.821Z,1.20
2022-09-27T09:33:35.216Z,1.10
2022-09-27T09:36:47.437Z,1.13
2022-09-27T09:40:14.153Z,1.20
2022-09-27T09:43:48.142Z,1.40
2022-09-27T09:46:55.572Z,1.40
2022-09-27T09:50:06.929Z,1.40
2022-09-27T09:53:43.717Z,1.67
2022-09-27T09:56:53.252Z,1.83
2022-09-27T10:00:01.116Z,1.50
2022-09-27T10:03:03.706Z,1.60
2022-09-27T10:06:06.574Z,1.80
2022-09-27T10:09:11.780Z,2.10
2022-09-27T10:12:39.152Z,1.77
2022-09-27T10:15:41.082Z,1.80
2022-09-27T10:18:47.626Z,2.10
2022-09-27T10:21:53.811Z,2.07
2022-09-27T10:24:58.531Z,1.57
2022-09-27T10:28:38.053Z,1.20
2022-09-27T10:31:42.080Z,1.20
2022-09-27T10:34:51.182Z,1.10
2022-09-27T10:37:53.675Z,1.10
2022-09-27T10:41:16.633Z,0.83
2022-09-27T10:44:29.858Z,1.07
2022-09-27T10:47:52.388Z,0.83
2022-09-27T10:51:20.796Z,1.00
2022-09-27T10:54:36.354Z,0.90
2022-09-27T10:57:40.731Z,0.83
2022-09-27T11:00:58.010Z,0.70
2022-09-27T11:04:00.291Z,0.80
2022-09-27T11:07:22.024Z,0.70
2022-09-27T11:10:37.183Z,1.20
2022-09-27T11:13:41.220Z,1.07
2022-09-27T11:17:17.918Z,0.80
2022-09-27T11:20:37.040Z,1.30
2022-09-27T11:23:56.212Z,1.10
2022-09-27T11:27:25.494Z,1.20
2022-09-27T11:30:40.731Z,1.10
2022-09-27T11:34:37.264Z,1.33
2022-09-27T11:37:46.981Z,1.60
2022-09-27T11:41:16.240Z,1.37
2022-09-27T11:44:25.890Z,1.37
2022-09-27T11:47:44.090Z,1.30
2022-09-27T11:51:12.616Z,1.20
2022-09-27T11:54:39.749Z,1.30
2022-09-27T11:58:00.875Z,1.47
2022-09-27T12:01:44.645Z,1.40
2022-09-27T12:05:08.352Z,1.03
2022-09-27T12:08:53.440Z,1.30
2022-09-27T12:12:02.892Z,1.43
2022-09-27T12:15:14.130Z,1.37
2022-09-27T12:18:29.365Z,1.17
2022-09-27T12:21:34.526Z,1.27
2022-09-27T12:24:38.239Z,1.13
2022-09-27T12:28:14.257Z,1.10
2022-09-27T12:31:29.378Z,1.20
2022-09-27T12:34:40.178Z,1.00
2022-09-27T12:38:00.772Z,1.03
2022-09-27T12:41:07.402Z,0.80
2022-09-27T12:44:17.235Z,0.80
2022-09-27T12:47:44.490Z,0.80
2022-09-27T12:51:10.298Z,0.70
2022-09-27T12:54:30.121Z,0.70
2022-09-27T12:57:50.508Z,0.77
2022-09-27T13:01:07.267Z,0.90
2022-09-27T13:04:30.416Z,0.70
2022-09-27T13:08:21.674Z,0.90
2022-09-27T13:11:51.044Z,1.00
2022-09-27T13:15:01.875Z,0.93
2022-09-27T13:18:06.769Z,1.00
2022-09-27T13:21:51.375Z,0.90
2022-09-27T13:25:56.673Z,0.70
2022-09-27T13:29:27.538Z,0.90
2022-09-27T13:32:31.415Z,0.83
2022-09-27T13:35:33.398Z,0.90
2022-09-27T13:39:06.076Z,1.20
2022-09-27T13:42:34.080Z,0.90
2022-09-27T13:45:57.401Z,0.77
2022-09-27T13:49:21.317Z,0.60
2022-09-27T13:53:02.788Z,0.50
2022-09-27T13:56:06.334Z,0.43
2022-09-27T13:59:20.068Z,0.40
2022-09-27T14:02:42.213Z,0.50
2022-09-27T14:06:03.485Z,0.80
2022-09-27T14:09:18.699Z,0.63
2022-09-27T14:12:31.970Z,0.47
2022-09-27T14:15:35.429Z,0.60
2022-09-27T14:18:45.629Z,0.60
2022-09-27T14:21:48.425Z,1.00
2022-09-27T14:25:03.038Z,0.60
2022-09-27T14:28:20.309Z,0.60
2022-09-27T14:31:32.023Z,0.60
2022-09-27T14:34:46.558Z,0.63
2022-09-27T14:37:52.640Z,0.70
2022-09-27T14:40:59.593Z,0.80
2022-09-27T14:44:01.448Z,0.60
2022-09-27T14:47:23.668Z,0.60
2022-09-27T14:50:28.938Z,0.47
2022-09-27T14:53:35.909Z,0.70
2022-09-27T14:56:38.256Z,0.60
2022-09-27T14:59:44.498Z,0.60
2022-09-27T15:02:46.727Z,0.67
2022-09-27T15:05:48.266Z,0.80
2022-09-27T15:08:50.250Z,0.60
2022-09-27T15:12:00.149Z,0.70
2022-09-27T15:15:01.887Z,0.80
2022-09-27T15:18:04.099Z,0.90
2022-09-27T15:21:06.504Z,0.60
2022-09-27T15:24:36.452Z,0.60
2022-09-27T15:27:38.659Z,0.80
2022-09-27T15:30:53.173Z,0.77
2022-09-27T15:33:58.441Z,0.60
2022-09-27T15:37:06.125Z,0.60
2022-09-27T15:40:17.450Z,0.63
2022-09-27T15:43:52.931Z,0.60
2022-09-27T15:46:54.356Z,0.50
2022-09-27T15:49:55.712Z,0.53
2022-09-27T15:52:57.513Z,0.60
2022-09-27T15:55:59.385Z,0.63
2022-09-27T15:59:01.532Z,0.60
2022-09-27T16:02:09.995Z,0.73
2022-09-27T16:05:12.242Z,0.70
2022-09-27T16:08:13.665Z,0.70
2022-09-27T16:11:17.342Z,0.80
2022-09-27T16:14:19.715Z,0.73
2022-09-27T16:17:21.082Z,0.50
2022-09-27T16:20:26.330Z,0.47
2022-09-27T16:23:28.064Z,0.50
2022-09-27T16:26:29.703Z,0.50
2022-09-27T16:29:31.071Z,0.40
2022-09-27T16:32:32.665Z,0.40
2022-09-27T16:35:34.208Z,0.50
2022-09-27T16:38:35.726Z,0.90
2022-09-27T16:41:37.211Z,0.70
2022-09-27T16:44:38.606Z,0.60
2022-09-27T16:47:39.977Z,0.60
2022-09-27T16:51:07.526Z,0.50
2022-09-27T16:54:08.959Z,0.60
2022-09-27T16:57:10.715Z,0.80
2022-09-27T17:00:12.699Z,0.70
2022-09-27T17:03:14.285Z,0.70
2022-09-27T17:06:17.624Z,0.80
2022-09-27T17:09:21.110Z,0.70
2022-09-27T17:12:22.874Z,0.60
2022-09-27T17:15:24.267Z,0.60
2022-09-27T17:18:25.635Z,0.80
2022-09-27T17:21:26.996Z,0.80
2022-09-27T17:24:28.396Z,0.70
2022-09-27T17:27:29.936Z,0.70
2022-09-27T17:30:31.583Z,0.70
2022-09-27T17:33:33.031Z,0.90
2022-09-27T17:36:35.477Z,1.00
2022-09-27T17:39:37.745Z,0.80
2022-09-27T17:42:39.232Z,0.80
2022-09-27T17:45:40.598Z,0.77
2022-09-27T17:49:00.448Z,1.20
2022-09-27T17:52:01.973Z,0.80
2022-09-27T17:55:03.615Z,0.83
2022-09-27T17:58:06.229Z,0.70
2022-09-27T18:01:07.686Z,0.97
2022-09-27T18:04:10.678Z,0.70
2022-09-27T18:07:15.010Z,1.10
2022-09-27T18:10:17.622Z,0.80
2022-09-27T18:13:18.982Z,0.70
2022-09-27T18:16:20.492Z,0.90
2022-09-27T18:19:21.889Z,1.00
2022-09-27T18:22:29.258Z,0.90
2022-09-27T18:25:30.657Z,1.00
2022-09-27T18:28:32.088Z,0.90
2022-09-27T18:31:33.886Z,1.00
2022-09-27T18:34:35.272Z,1.10
2022-09-27T18:37:36.629Z,0.83
2022-09-27T18:40:55.699Z,1.30
2022-09-27T18:44:00.874Z,1.20
2022-09-27T18:47:02.388Z,1.40
2022-09-27T18:50:04.183Z,1.30
2022-09-27T18:53:05.611Z,1.30
2022-09-27T18:56:09.636Z,1.33
2022-09-27T18:59:11.287Z,1.33
2022-09-27T19:02:12.739Z,1.37
2022-09-27T19:05:14.206Z,1.60
2022-09-27T19:08:15.579Z,1.47
2022-09-27T19:11:18.388Z,1.40
2022-09-27T19:14:22.291Z,1.20
2022-09-27T19:17:23.677Z,1.13
2022-09-27T19:20:25.055Z,1.00
2022-09-27T19:23:26.457Z,1.20
2022-09-27T19:26:28.375Z,0.83
2022-09-27T19:29:29.853Z,1.20
2022-09-27T19:32:31.273Z,0.97
2022-09-27T19:35:32.746Z,0.90
2022-09-27T19:38:35.828Z,0.80
2022-09-27T19:41:37.506Z,1.23
2022-09-27T19:44:38.867Z,0.90
2022-09-27T19:47:40.322Z,0.80
2022-09-27T19:50:41.711Z,1.17
2022-09-27T19:53:43.239Z,1.10
2022-09-27T19:56:44.627Z,1.00
2022-09-27T19:59:46.096Z,1.03
2022-09-27T20:02:47.644Z,0.97
2022-09-27T20:05:56.479Z,0.93
2022-09-27T20:08:58.496Z,1.33
2022-09-27T20:11:59.880Z,1.10
2022-09-27T20:15:01.297Z,1.00
2022-09-27T20:18:07.157Z,1.13
2022-09-27T20:21:11.305Z,1.00
2022-09-27T20:24:12.869Z,0.80
2022-09-27T20:27:14.243Z,1.30
2022-09-27T20:30:15.782Z,1.00
2022-09-27T20:33:35.829Z,1.00
2022-09-27T20:36:39.772Z,0.90
2022-09-27T20:39:41.182Z,1.10
2022-09-27T20:42:42.566Z,0.97
2022-09-27T20:45:44.291Z,1.17
2022-09-27T20:48:50.025Z,1.10
2022-09-27T20:51:51.477Z,0.90
2022-09-27T20:54:52.911Z,1.10
2022-09-27T20:57:57.738Z,1.00
2022-09-27T21:01:06.689Z,1.20
2022-09-27T21:04:09.261Z,1.00
2022-09-27T21:07:10.659Z,1.00
2022-09-27T21:10:12.066Z,0.77
2022-09-27T21:13:13.434Z,0.90
2022-09-27T21:16:25.871Z,0.80
2022-09-27T21:19:29.196Z,0.97
2022-09-27T21:22:30.659Z,0.90
2022-09-27T21:25:32.034Z,1.00
2022-09-27T21:28:41.438Z,0.90
2022-09-27T21:31:43.089Z,0.90
2022-09-27T21:34:44.833Z,0.90
2022-09-27T21:37:47.565Z,1.10
2022-09-27T21:41:03.338Z,0.97
2022-09-27T21:44:05.820Z,1.20
2022-09-27T21:47:07.271Z,1.10
2022-09-27T21:50:08.810Z,1.10
2022-09-27T21:53:10.181Z,1.00
2022-09-27T21:56:11.896Z,1.17
2022-09-27T21:59:15.347Z,1.30
2022-09-27T22:02:19.313Z,1.40
2022-09-27T22:05:20.833Z,1.20
2022-09-27T22:08:22.196Z,1.10
2022-09-27T22:11:26.350Z,1.20
2022-09-27T22:14:27.730Z,1.07
2022-09-27T22:17:29.204Z,0.93
2022-09-27T22:20:31.641Z,0.87
2022-09-27T22:23:33.500Z,1.23
2022-09-27T22:26:37.820Z,0.70
2022-09-27T22:29:39.195Z,0.90
2022-09-27T22:32:45.085Z,0.90
2022-09-27T22:35:47.433Z,0.90
2022-09-27T22:38:49.781Z,0.90
2022-09-27T22:41:51.226Z,0.70
2022-09-27T22:44:52.750Z,0.70
2022-09-27T22:47:54.135Z,0.93
2022-09-27T22:50:56.986Z,0.90
2022-09-27T22:53:58.370Z,1.00
2022-09-27T22:56:59.747Z,0.80
2022-09-27T23:00:01.590Z,0.90
2022-09-27T23:03:03.018Z,1.00
2022-09-27T23:06:06.949Z,0.70
2022-09-27T23:09:09.424Z,0.77
2022-09-27T23:12:10.961Z,0.87
2022-09-27T23:15:16.077Z,1.03
2022-09-27T23:18:17.450Z,0.80
2022-09-27T23:21:18.830Z,0.90
2022-09-27T23:24:20.195Z,0.73
2022-09-27T23:27:40.254Z,0.63
2022-09-27T23:30:41.805Z,0.60
2022-09-27T23:33:46.222Z,0.70
2022-09-27T23:36:47.699Z,0.70
2022-09-27T23:39:49.166Z,0.90
2022-09-27T23:42:52.195Z,0.87
2022-09-27T23:45:57.141Z,0.80
2022-09-27T23:48:58.766Z,0.57
2022-09-27T23:52:00.752Z,0.70
2022-09-27T23:55:02.179Z,0.77
2022-09-27T23:58:03.560Z,0.60
